South Daytona, FL

11:48 PM EDT on April 27, 2015 (GMT -0400)
Daytona Beach International | | Change Station
CLOSE
Current Station
Airport
Location: Daytona Beach,
Elevation: 33 ft
Nearby Weather Stations

Elev 33 ft 29.18 °N, 81.06 °W | Updated 55 minutes ago

Rain
Rain
70 °F
Feels Like 70 °F
N
5
Wind Variable Wind from Variable

Today
High -- | Low -- °F
--% Chance of Precip.
Yesterday
High -- | Low -- °F
Precip. -- in
6:46 AM 7:57 PM
Waxing Gibbous, 70% visible
Pressure 29.88 in
Visibility 8.0 miles
Clouds Few 1200 ft
Mostly Cloudy 9000 ft
Overcast 11000 ft
Dew Point 69 °F
Humidity 97%
Rainfall 0.03 in
Snow Depth Not available.
UV 0 out of 12
Pollen 8.20 out of 12
Air Quality Not available.
Flu Activity Local Activity
METAR KDAB 280253Z VRB04KT 8SM FEW012 BKN090 OVC110 21/21 A2988 RMK AO2 SLP118 60000 T02110206 53010

More Conditions Fewer Conditions

Pressure 29.88 in
Visibility 8.0 miles
Clouds Few 1200 ft
Mostly Cloudy 9000 ft
Overcast 11000 ft
Dew Point 69 °F
Humidity 97%
Rainfall 0.03 in
Snow Depth Not available.
UV 0 out of 12
Pollen 8.20 out of 12
Air Quality Not available.
Flu Activity Local Activity
METAR KDAB 280253Z VRB04KT 8SM FEW012 BKN090 OVC110 21/21 A2988 RMK AO2 SLP118 60000 T02110206 53010

More Conditions Fewer Conditions

Nowcast | as of 10:43 PM EDT on April 27, 2015

Moisture streaming across central Florida from the Gulf of Mexico and a stationary frontal boundary near the region will help keep a chance of showers in the forecast for east central Florida overnight. Higher rain chances will occur north of Kissimmee and Titusville where the deepest moisture and disturbance aloft area forecast. Additional details...including graphics are available online at: http://www.Srh.NOAA.Gov/mlb/blog.Php

×

10-Day Weather Forecast

Almanac

Astronomy

Apr. 27, 2015 Rise Set
Actual Time
Civil Twilight
Nautical Twilight
Astronomical Twilight
Moon
Length of Visible Light
Length of Day
Tomorrow will be .
, % of the Moon is Illuminated

Today's Extremes

State Highs State Lows

Community

WunderPhotos

Upload Photos

1,817,557 photos uploaded!

WunderBlogs® & News

Nearby

Air Quality

  Air Quality AQ Index Pollutant
Not available.

Snow Depth

Station Depth Elevation

Earthquake Activity

City Distance Mag. Time & Date
Minimum magnitude displayed is 2.5.

Coastal Water Temperatures

Place Temperature

Stations

Nearby Weather Stations

Station Location Temp. Windchill Dew Point Humidity Wind Precip. Elev Updated Type